sensor_id;sensor_type;location;lat;lon;timestamp;P1;durP1;ratioP1;P2;durP2;ratioP2
32172;SDS011;18679;45.190;5.722;2023-04-24T00:00:40;2.45;;;0.90;;
32172;SDS011;18679;45.190;5.722;2023-04-24T00:03:41;3.60;;;1.02;;
32172;SDS011;18679;45.190;5.722;2023-04-24T00:06:42;4.80;;;0.85;;
32172;SDS011;18679;45.190;5.722;2023-04-24T00:09:44;1.15;;;0.93;;
32172;SDS011;18679;45.190;5.722;2023-04-24T00:12:45;0.85;;;0.50;;
32172;SDS011;18679;45.190;5.722;2023-04-24T00:15:46;0.50;;;0.40;;
32172;SDS011;18679;45.190;5.722;2023-04-24T00:18:47;1.08;;;0.52;;
32172;SDS011;18679;45.190;5.722;2023-04-24T00:21:48;0.52;;;0.47;;
32172;SDS011;18679;45.190;5.722;2023-04-24T00:24:52;0.65;;;0.63;;
32172;SDS011;18679;45.190;5.722;2023-04-24T00:27:53;1.02;;;0.50;;
32172;SDS011;18679;45.190;5.722;2023-04-24T00:30:54;0.82;;;0.50;;
32172;SDS011;18679;45.190;5.722;2023-04-24T00:33:55;1.55;;;0.65;;
32172;SDS011;18679;45.190;5.722;2023-04-24T00:36:56;1.08;;;0.90;;
32172;SDS011;18679;45.190;5.722;2023-04-24T00:39:57;2.20;;;0.90;;
32172;SDS011;18679;45.190;5.722;2023-04-24T00:42:58;0.65;;;0.65;;
32172;SDS011;18679;45.190;5.722;2023-04-24T00:45:59;0.98;;;0.63;;
32172;SDS011;18679;45.190;5.722;2023-04-24T00:49:01;0.73;;;0.40;;
32172;SDS011;18679;45.190;5.722;2023-04-24T00:52:03;0.60;;;0.60;;
32172;SDS011;18679;45.190;5.722;2023-04-24T00:55:07;1.13;;;0.65;;
32172;SDS011;18679;45.190;5.722;2023-04-24T00:58:09;1.88;;;0.90;;
32172;SDS011;18679;45.190;5.722;2023-04-24T01:01:10;2.17;;;0.55;;
32172;SDS011;18679;45.190;5.722;2023-04-24T01:04:12;1.67;;;0.75;;
32172;SDS011;18679;45.190;5.722;2023-04-24T01:07:13;2.65;;;0.60;;
32172;SDS011;18679;45.190;5.722;2023-04-24T01:10:14;1.52;;;0.63;;
32172;SDS011;18679;45.190;5.722;2023-04-24T01:13:19;0.50;;;0.50;;
32172;SDS011;18679;45.190;5.722;2023-04-24T01:16:21;1.40;;;0.73;;
32172;SDS011;18679;45.190;5.722;2023-04-24T01:19:22;1.00;;;0.70;;
32172;SDS011;18679;45.190;5.722;2023-04-24T01:22:23;0.70;;;0.50;;
32172;SDS011;18679;45.190;5.722;2023-04-24T01:25:24;2.35;;;0.50;;
32172;SDS011;18679;45.190;5.722;2023-04-24T01:28:26;1.20;;;0.73;;
32172;SDS011;18679;45.190;5.722;2023-04-24T01:31:28;1.00;;;0.60;;
32172;SDS011;18679;45.190;5.722;2023-04-24T01:34:30;0.98;;;0.68;;
32172;SDS011;18679;45.190;5.722;2023-04-24T01:37:31;1.40;;;0.57;;
32172;SDS011;18679;45.190;5.722;2023-04-24T01:40:33;0.65;;;0.55;;
32172;SDS011;18679;45.190;5.722;2023-04-24T01:43:35;0.73;;;0.60;;
32172;SDS011;18679;45.190;5.722;2023-04-24T01:46:35;0.85;;;0.60;;
32172;SDS011;18679;45.190;5.722;2023-04-24T01:49:38;1.55;;;0.47;;
32172;SDS011;18679;45.190;5.722;2023-04-24T01:52:39;1.27;;;0.40;;
32172;SDS011;18679;45.190;5.722;2023-04-24T01:55:40;1.23;;;0.68;;
32172;SDS011;18679;45.190;5.722;2023-04-24T01:58:41;1.35;;;0.75;;
32172;SDS011;18679;45.190;5.722;2023-04-24T02:01:43;0.88;;;0.60;;
32172;SDS011;18679;45.190;5.722;2023-04-24T02:04:44;0.45;;;0.45;;
32172;SDS011;18679;45.190;5.722;2023-04-24T02:07:45;0.88;;;0.52;;
32172;SDS011;18679;45.190;5.722;2023-04-24T02:10:46;0.55;;;0.40;;
32172;SDS011;18679;45.190;5.722;2023-04-24T02:13:47;1.05;;;0.60;;
32172;SDS011;18679;45.190;5.722;2023-04-24T02:16:47;0.50;;;0.50;;
32172;SDS011;18679;45.190;5.722;2023-04-24T02:19:48;1.25;;;0.47;;
32172;SDS011;18679;45.190;5.722;2023-04-24T02:22:50;3.97;;;0.68;;
32172;SDS011;18679;45.190;5.722;2023-04-24T02:25:52;1.77;;;0.47;;
32172;SDS011;18679;45.190;5.722;2023-04-24T02:28:53;0.98;;;0.43;;
32172;SDS011;18679;45.190;5.722;2023-04-24T02:31:54;0.95;;;0.38;;
32172;SDS011;18679;45.190;5.722;2023-04-24T02:34:55;2.15;;;0.45;;
32172;SDS011;18679;45.190;5.722;2023-04-24T02:37:56;0.40;;;0.40;;
32172;SDS011;18679;45.190;5.722;2023-04-24T02:40:57;1.15;;;0.60;;
32172;SDS011;18679;45.190;5.722;2023-04-24T02:44:00;0.40;;;0.25;;
32172;SDS011;18679;45.190;5.722;2023-04-24T02:47:01;0.30;;;0.30;;
32172;SDS011;18679;45.190;5.722;2023-04-24T02:50:02;0.32;;;0.32;;
32172;SDS011;18679;45.190;5.722;2023-04-24T02:53:04;1.38;;;0.50;;
32172;SDS011;18679;45.190;5.722;2023-04-24T02:56:05;0.75;;;0.40;;
32172;SDS011;18679;45.190;5.722;2023-04-24T02:59:06;0.52;;;0.52;;
32172;SDS011;18679;45.190;5.722;2023-04-24T03:02:08;1.92;;;0.55;;
32172;SDS011;18679;45.190;5.722;2023-04-24T03:05:09;0.98;;;0.57;;
32172;SDS011;18679;45.190;5.722;2023-04-24T03:08:12;1.38;;;0.45;;
32172;SDS011;18679;45.190;5.722;2023-04-24T03:11:13;0.77;;;0.45;;
32172;SDS011;18679;45.190;5.722;2023-04-24T03:14:15;0.90;;;0.43;;
32172;SDS011;18679;45.190;5.722;2023-04-24T03:17:16;0.38;;;0.35;;
32172;SDS011;18679;45.190;5.722;2023-04-24T03:20:17;3.85;;;0.77;;
32172;SDS011;18679;45.190;5.722;2023-04-24T03:23:18;7.00;;;0.40;;
32172;SDS011;18679;45.190;5.722;2023-04-24T03:26:20;0.82;;;0.60;;
32172;SDS011;18679;45.190;5.722;2023-04-24T03:29:34;0.55;;;0.47;;
32172;SDS011;18679;45.190;5.722;2023-04-24T03:32:36;0.50;;;0.40;;
32172;SDS011;18679;45.190;5.722;2023-04-24T03:35:37;0.95;;;0.50;;
32172;SDS011;18679;45.190;5.722;2023-04-24T03:38:42;1.05;;;0.50;;
32172;SDS011;18679;45.190;5.722;2023-04-24T03:41:59;1.90;;;0.47;;
32172;SDS011;18679;45.190;5.722;2023-04-24T03:45:11;0.68;;;0.52;;
32172;SDS011;18679;45.190;5.722;2023-04-24T03:48:15;1.00;;;0.30;;
32172;SDS011;18679;45.190;5.722;2023-04-24T03:51:16;1.48;;;0.60;;
32172;SDS011;18679;45.190;5.722;2023-04-24T03:54:20;6.90;;;0.90;;
32172;SDS011;18679;45.190;5.722;2023-04-24T03:57:21;1.92;;;0.70;;
32172;SDS011;18679;45.190;5.722;2023-04-24T04:00:35;0.82;;;0.55;;
32172;SDS011;18679;45.190;5.722;2023-04-24T04:04:16;0.60;;;0.40;;
32172;SDS011;18679;45.190;5.722;2023-04-24T04:07:18;0.93;;;0.70;;
32172;SDS011;18679;45.190;5.722;2023-04-24T04:10:19;1.80;;;0.80;;
32172;SDS011;18679;45.190;5.722;2023-04-24T04:13:21;1.92;;;1.08;;
32172;SDS011;18679;45.190;5.722;2023-04-24T04:16:22;0.50;;;0.50;;
32172;SDS011;18679;45.190;5.722;2023-04-24T04:19:27;8.27;;;0.90;;
32172;SDS011;18679;45.190;5.722;2023-04-24T04:22:29;2.47;;;0.63;;
32172;SDS011;18679;45.190;5.722;2023-04-24T04:25:33;17.42;;;1.08;;
32172;SDS011;18679;45.190;5.722;2023-04-24T04:28:34;1.02;;;0.70;;
32172;SDS011;18679;45.190;5.722;2023-04-24T04:31:36;1.88;;;1.05;;
32172;SDS011;18679;45.190;5.722;2023-04-24T04:34:41;0.90;;;0.50;;
32172;SDS011;18679;45.190;5.722;2023-04-24T04:37:45;0.90;;;0.70;;
32172;SDS011;18679;45.190;5.722;2023-04-24T04:40:59;3.33;;;2.05;;
32172;SDS011;18679;45.190;5.722;2023-04-24T04:44:03;14.30;;;5.00;;
32172;SDS011;18679;45.190;5.722;2023-04-24T04:47:06;22.23;;;7.07;;
32172;SDS011;18679;45.190;5.722;2023-04-24T04:50:10;14.02;;;7.93;;
32172;SDS011;18679;45.190;5.722;2023-04-24T04:53:12;12.80;;;5.97;;
32172;SDS011;18679;45.190;5.722;2023-04-24T04:56:13;19.95;;;6.10;;
32172;SDS011;18679;45.190;5.722;2023-04-24T04:59:16;5.10;;;3.08;;
32172;SDS011;18679;45.190;5.722;2023-04-24T05:02:17;7.47;;;3.22;;
32172;SDS011;18679;45.190;5.722;2023-04-24T05:05:18;4.88;;;2.17;;
32172;SDS011;18679;45.190;5.722;2023-04-24T05:08:19;6.18;;;1.35;;
32172;SDS011;18679;45.190;5.722;2023-04-24T05:11:20;2.30;;;1.80;;
32172;SDS011;18679;45.190;5.722;2023-04-24T05:14:21;6.22;;;2.20;;
32172;SDS011;18679;45.190;5.722;2023-04-24T05:17:23;5.72;;;2.88;;
32172;SDS011;18679;45.190;5.722;2023-04-24T05:20:26;5.72;;;2.20;;
32172;SDS011;18679;45.190;5.722;2023-04-24T05:23:28;2.15;;;1.20;;
32172;SDS011;18679;45.190;5.722;2023-04-24T05:26:30;4.97;;;1.05;;
32172;SDS011;18679;45.190;5.722;2023-04-24T05:29:33;1.42;;;0.70;;
32172;SDS011;18679;45.190;5.722;2023-04-24T05:32:34;1.10;;;0.90;;
32172;SDS011;18679;45.190;5.722;2023-04-24T05:35:35;1.95;;;0.80;;
32172;SDS011;18679;45.190;5.722;2023-04-24T05:38:36;5.47;;;0.93;;
32172;SDS011;18679;45.190;5.722;2023-04-24T05:41:37;1.80;;;0.90;;
32172;SDS011;18679;45.190;5.722;2023-04-24T05:44:38;1.20;;;0.90;;
32172;SDS011;18679;45.190;5.722;2023-04-24T05:47:39;2.20;;;1.10;;
32172;SDS011;18679;45.190;5.722;2023-04-24T05:50:40;1.60;;;1.05;;
32172;SDS011;18679;45.190;5.722;2023-04-24T05:53:41;2.20;;;1.10;;
32172;SDS011;18679;45.190;5.722;2023-04-24T05:56:43;6.03;;;1.00;;
32172;SDS011;18679;45.190;5.722;2023-04-24T05:59:47;5.05;;;0.90;;
32172;SDS011;18679;45.190;5.722;2023-04-24T06:02:50;3.67;;;1.50;;
32172;SDS011;18679;45.190;5.722;2023-04-24T06:05:51;3.42;;;1.10;;
32172;SDS011;18679;45.190;5.722;2023-04-24T06:08:53;6.60;;;1.55;;
32172;SDS011;18679;45.190;5.722;2023-04-24T06:11:54;5.13;;;1.25;;
32172;SDS011;18679;45.190;5.722;2023-04-24T06:14:59;3.92;;;1.80;;
32172;SDS011;18679;45.190;5.722;2023-04-24T06:18:14;2.83;;;1.00;;
32172;SDS011;18679;45.190;5.722;2023-04-24T06:21:16;2.55;;;0.80;;
32172;SDS011;18679;45.190;5.722;2023-04-24T06:24:18;2.05;;;1.05;;
32172;SDS011;18679;45.190;5.722;2023-04-24T06:27:19;2.92;;;1.08;;
32172;SDS011;18679;45.190;5.722;2023-04-24T06:30:20;3.35;;;1.23;;
32172;SDS011;18679;45.190;5.722;2023-04-24T06:33:21;3.22;;;1.05;;
32172;SDS011;18679;45.190;5.722;2023-04-24T06:36:25;2.70;;;0.95;;
32172;SDS011;18679;45.190;5.722;2023-04-24T06:39:26;1.85;;;1.02;;
32172;SDS011;18679;45.190;5.722;2023-04-24T06:42:27;1.17;;;0.93;;
32172;SDS011;18679;45.190;5.722;2023-04-24T06:45:29;2.17;;;1.23;;
32172;SDS011;18679;45.190;5.722;2023-04-24T06:48:30;7.97;;;1.30;;
32172;SDS011;18679;45.190;5.722;2023-04-24T06:51:31;1.08;;;0.90;;
32172;SDS011;18679;45.190;5.722;2023-04-24T06:54:33;0.80;;;0.77;;
32172;SDS011;18679;45.190;5.722;2023-04-24T06:57:34;3.03;;;0.88;;
32172;SDS011;18679;45.190;5.722;2023-04-24T07:00:35;6.75;;;1.10;;
32172;SDS011;18679;45.190;5.722;2023-04-24T07:03:36;1.38;;;1.00;;
32172;SDS011;18679;45.190;5.722;2023-04-24T07:06:37;8.52;;;0.77;;
32172;SDS011;18679;45.190;5.722;2023-04-24T07:09:39;1.63;;;0.85;;
32172;SDS011;18679;45.190;5.722;2023-04-24T07:12:44;4.05;;;0.82;;
32172;SDS011;18679;45.190;5.722;2023-04-24T07:15:46;1.65;;;1.05;;
32172;SDS011;18679;45.190;5.722;2023-04-24T07:18:49;4.35;;;1.40;;
32172;SDS011;18679;45.190;5.722;2023-04-24T07:21:50;2.00;;;1.05;;
32172;SDS011;18679;45.190;5.722;2023-04-24T07:24:51;6.97;;;1.20;;
32172;SDS011;18679;45.190;5.722;2023-04-24T07:27:52;4.70;;;1.90;;
32172;SDS011;18679;45.190;5.722;2023-04-24T07:30:53;1.92;;;1.10;;
32172;SDS011;18679;45.190;5.722;2023-04-24T07:33:54;1.20;;;0.80;;
32172;SDS011;18679;45.190;5.722;2023-04-24T07:36:58;6.03;;;1.25;;
32172;SDS011;18679;45.190;5.722;2023-04-24T07:39:59;3.35;;;0.85;;
32172;SDS011;18679;45.190;5.722;2023-04-24T07:43:00;1.45;;;0.95;;
32172;SDS011;18679;45.190;5.722;2023-04-24T07:46:01;0.90;;;0.60;;
32172;SDS011;18679;45.190;5.722;2023-04-24T07:49:02;2.30;;;0.82;;
32172;SDS011;18679;45.190;5.722;2023-04-24T07:52:04;8.57;;;1.77;;
32172;SDS011;18679;45.190;5.722;2023-04-24T07:55:05;3.38;;;1.67;;
32172;SDS011;18679;45.190;5.722;2023-04-24T07:58:07;2.60;;;1.20;;
32172;SDS011;18679;45.190;5.722;2023-04-24T08:01:08;1.17;;;0.98;;
32172;SDS011;18679;45.190;5.722;2023-04-24T08:04:09;2.63;;;0.70;;
32172;SDS011;18679;45.190;5.722;2023-04-24T08:07:13;1.15;;;0.80;;
32172;SDS011;18679;45.190;5.722;2023-04-24T08:10:14;1.20;;;0.50;;
32172;SDS011;18679;45.190;5.722;2023-04-24T08:13:15;1.23;;;0.80;;
32172;SDS011;18679;45.190;5.722;2023-04-24T08:16:16;2.20;;;0.80;;
32172;SDS011;18679;45.190;5.722;2023-04-24T08:19:17;5.13;;;1.10;;
32172;SDS011;18679;45.190;5.722;2023-04-24T08:22:18;2.22;;;0.85;;
32172;SDS011;18679;45.190;5.722;2023-04-24T08:25:19;0.63;;;0.50;;
32172;SDS011;18679;45.190;5.722;2023-04-24T08:28:20;3.92;;;1.00;;
32172;SDS011;18679;45.190;5.722;2023-04-24T08:31:22;7.65;;;1.00;;
32172;SDS011;18679;45.190;5.722;2023-04-24T08:34:25;6.93;;;0.90;;
32172;SDS011;18679;45.190;5.722;2023-04-24T08:37:26;3.95;;;1.20;;
32172;SDS011;18679;45.190;5.722;2023-04-24T08:40:28;2.75;;;1.05;;
32172;SDS011;18679;45.190;5.722;2023-04-24T08:43:31;3.75;;;1.35;;
32172;SDS011;18679;45.190;5.722;2023-04-24T08:46:36;1.75;;;1.15;;
32172;SDS011;18679;45.190;5.722;2023-04-24T08:49:38;4.65;;;1.40;;
32172;SDS011;18679;45.190;5.722;2023-04-24T08:52:39;1.77;;;1.17;;
32172;SDS011;18679;45.190;5.722;2023-04-24T08:55:42;1.55;;;1.27;;
32172;SDS011;18679;45.190;5.722;2023-04-24T08:58:46;4.90;;;3.05;;
32172;SDS011;18679;45.190;5.722;2023-04-24T09:01:47;4.63;;;2.58;;
32172;SDS011;18679;45.190;5.722;2023-04-24T09:04:51;3.80;;;2.40;;
32172;SDS011;18679;45.190;5.722;2023-04-24T09:07:54;2.65;;;1.60;;
32172;SDS011;18679;45.190;5.722;2023-04-24T09:10:56;2.03;;;1.42;;
32172;SDS011;18679;45.190;5.722;2023-04-24T09:13:58;1.33;;;0.90;;
32172;SDS011;18679;45.190;5.722;2023-04-24T09:17:00;5.70;;;1.08;;
32172;SDS011;18679;45.190;5.722;2023-04-24T09:20:01;0.50;;;0.40;;
32172;SDS011;18679;45.190;5.722;2023-04-24T09:23:03;1.27;;;0.68;;
32172;SDS011;18679;45.190;5.722;2023-04-24T09:26:04;1.08;;;0.70;;
32172;SDS011;18679;45.190;5.722;2023-04-24T09:29:05;0.65;;;0.52;;
32172;SDS011;18679;45.190;5.722;2023-04-24T09:32:19;1.65;;;0.82;;
32172;SDS011;18679;45.190;5.722;2023-04-24T09:35:26;2.40;;;1.00;;
32172;SDS011;18679;45.190;5.722;2023-04-24T09:38:30;11.57;;;0.98;;
32172;SDS011;18679;45.190;5.722;2023-04-24T09:41:34;0.97;;;0.83;;
32172;SDS011;18679;45.190;5.722;2023-04-24T09:44:36;11.15;;;3.03;;
32172;SDS011;18679;45.190;5.722;2023-04-24T09:47:37;6.28;;;2.63;;
32172;SDS011;18679;45.190;5.722;2023-04-24T09:50:45;3.50;;;1.50;;
32172;SDS011;18679;45.190;5.722;2023-04-24T09:53:47;11.88;;;3.42;;
32172;SDS011;18679;45.190;5.722;2023-04-24T09:56:52;4.20;;;1.60;;
32172;SDS011;18679;45.190;5.722;2023-04-24T09:59:56;1.90;;;1.02;;
32172;SDS011;18679;45.190;5.722;2023-04-24T10:03:02;3.97;;;1.40;;
32172;SDS011;18679;45.190;5.722;2023-04-24T10:06:04;1.38;;;0.90;;
32172;SDS011;18679;45.190;5.722;2023-04-24T10:09:11;1.17;;;0.90;;
32172;SDS011;18679;45.190;5.722;2023-04-24T10:12:14;7.18;;;2.13;;
32172;SDS011;18679;45.190;5.722;2023-04-24T10:15:15;3.90;;;1.20;;
32172;SDS011;18679;45.190;5.722;2023-04-24T10:18:21;3.13;;;1.42;;
32172;SDS011;18679;45.190;5.722;2023-04-24T10:21:23;4.32;;;1.65;;
32172;SDS011;18679;45.190;5.722;2023-04-24T10:24:24;2.67;;;1.20;;
32172;SDS011;18679;45.190;5.722;2023-04-24T10:27:25;1.02;;;0.70;;
32172;SDS011;18679;45.190;5.722;2023-04-24T10:30:28;2.88;;;1.02;;
32172;SDS011;18679;45.190;5.722;2023-04-24T10:33:38;2.50;;;0.70;;
32172;SDS011;18679;45.190;5.722;2023-04-24T10:36:46;2.33;;;0.90;;
32172;SDS011;18679;45.190;5.722;2023-04-24T10:39:51;3.63;;;0.68;;
32172;SDS011;18679;45.190;5.722;2023-04-24T10:42:55;0.77;;;0.60;;
32172;SDS011;18679;45.190;5.722;2023-04-24T10:46:00;4.63;;;1.48;;
32172;SDS011;18679;45.190;5.722;2023-04-24T10:49:03;1.83;;;0.77;;
32172;SDS011;18679;45.190;5.722;2023-04-24T10:52:14;2.72;;;0.88;;
32172;SDS011;18679;45.190;5.722;2023-04-24T10:55:17;1.65;;;0.82;;
32172;SDS011;18679;45.190;5.722;2023-04-24T10:58:50;1.60;;;0.68;;
32172;SDS011;18679;45.190;5.722;2023-04-24T11:01:54;1.65;;;1.00;;
32172;SDS011;18679;45.190;5.722;2023-04-24T11:04:58;1.25;;;0.70;;
32172;SDS011;18679;45.190;5.722;2023-04-24T11:08:10;2.05;;;0.90;;
32172;SDS011;18679;45.190;5.722;2023-04-24T11:11:16;1.67;;;0.80;;
32172;SDS011;18679;45.190;5.722;2023-04-24T11:14:18;1.65;;;0.68;;
32172;SDS011;18679;45.190;5.722;2023-04-24T11:20:30;0.68;;;0.65;;
32172;SDS011;18679;45.190;5.722;2023-04-24T11:23:35;3.47;;;0.95;;
32172;SDS011;18679;45.190;5.722;2023-04-24T11:26:38;1.48;;;0.70;;
32172;SDS011;18679;45.190;5.722;2023-04-24T11:32:47;2.80;;;0.70;;
32172;SDS011;18679;45.190;5.722;2023-04-24T11:35:50;0.47;;;0.47;;
32172;SDS011;18679;45.190;5.722;2023-04-24T11:38:52;2.30;;;0.80;;
32172;SDS011;18679;45.190;5.722;2023-04-24T11:41:53;1.98;;;0.70;;
32172;SDS011;18679;45.190;5.722;2023-04-24T11:45:06;1.52;;;0.38;;
32172;SDS011;18679;45.190;5.722;2023-04-24T11:48:11;1.30;;;0.70;;
32172;SDS011;18679;45.190;5.722;2023-04-24T11:51:12;2.25;;;0.70;;
32172;SDS011;18679;45.190;5.722;2023-04-24T11:54:14;2.30;;;0.68;;
32172;SDS011;18679;45.190;5.722;2023-04-24T11:57:15;0.60;;;0.60;;
32172;SDS011;18679;45.190;5.722;2023-04-24T12:03:28;5.18;;;1.00;;
32172;SDS011;18679;45.190;5.722;2023-04-24T12:06:29;1.05;;;0.65;;
32172;SDS011;18679;45.190;5.722;2023-04-24T12:13:01;1.38;;;0.60;;
32172;SDS011;18679;45.190;5.722;2023-04-24T12:16:03;0.50;;;0.50;;
32172;SDS011;18679;45.190;5.722;2023-04-24T12:19:05;3.83;;;0.45;;
32172;SDS011;18679;45.190;5.722;2023-04-24T12:22:06;2.30;;;1.02;;
32172;SDS011;18679;45.190;5.722;2023-04-24T12:25:09;1.77;;;0.45;;
32172;SDS011;18679;45.190;5.722;2023-04-24T12:28:12;4.80;;;1.08;;
32172;SDS011;18679;45.190;5.722;2023-04-24T12:31:13;2.10;;;0.77;;
32172;SDS011;18679;45.190;5.722;2023-04-24T12:34:18;1.55;;;0.70;;
32172;SDS011;18679;45.190;5.722;2023-04-24T12:37:20;1.55;;;0.68;;
32172;SDS011;18679;45.190;5.722;2023-04-24T12:40:25;1.25;;;0.70;;
32172;SDS011;18679;45.190;5.722;2023-04-24T12:43:26;4.97;;;0.77;;
32172;SDS011;18679;45.190;5.722;2023-04-24T12:46:28;1.13;;;0.60;;
32172;SDS011;18679;45.190;5.722;2023-04-24T12:49:30;3.55;;;0.73;;
32172;SDS011;18679;45.190;5.722;2023-04-24T12:52:31;1.40;;;0.60;;
32172;SDS011;18679;45.190;5.722;2023-04-24T12:55:32;2.47;;;0.75;;
32172;SDS011;18679;45.190;5.722;2023-04-24T12:58:33;8.10;;;0.70;;
32172;SDS011;18679;45.190;5.722;2023-04-24T13:01:34;3.65;;;0.50;;
32172;SDS011;18679;45.190;5.722;2023-04-24T13:04:36;2.05;;;0.60;;
32172;SDS011;18679;45.190;5.722;2023-04-24T13:07:36;0.63;;;0.47;;
32172;SDS011;18679;45.190;5.722;2023-04-24T13:10:38;1.80;;;0.50;;
32172;SDS011;18679;45.190;5.722;2023-04-24T13:13:39;1.85;;;0.70;;
32172;SDS011;18679;45.190;5.722;2023-04-24T13:16:40;1.40;;;0.68;;
32172;SDS011;18679;45.190;5.722;2023-04-24T13:19:42;3.78;;;0.50;;
32172;SDS011;18679;45.190;5.722;2023-04-24T13:22:44;1.02;;;0.55;;
32172;SDS011;18679;45.190;5.722;2023-04-24T13:25:45;0.73;;;0.60;;
32172;SDS011;18679;45.190;5.722;2023-04-24T13:28:47;1.35;;;0.55;;
32172;SDS011;18679;45.190;5.722;2023-04-24T13:31:52;2.50;;;0.50;;
32172;SDS011;18679;45.190;5.722;2023-04-24T13:34:56;5.97;;;1.17;;
32172;SDS011;18679;45.190;5.722;2023-04-24T13:37:58;1.13;;;0.70;;
32172;SDS011;18679;45.190;5.722;2023-04-24T13:41:01;1.15;;;0.60;;
32172;SDS011;18679;45.190;5.722;2023-04-24T13:44:03;1.15;;;0.60;;
32172;SDS011;18679;45.190;5.722;2023-04-24T13:47:04;1.83;;;0.60;;
32172;SDS011;18679;45.190;5.722;2023-04-24T13:50:07;2.63;;;0.60;;
32172;SDS011;18679;45.190;5.722;2023-04-24T13:53:09;0.82;;;0.63;;
32172;SDS011;18679;45.190;5.722;2023-04-24T13:56:10;1.90;;;0.50;;
32172;SDS011;18679;45.190;5.722;2023-04-24T13:59:12;1.10;;;0.60;;
32172;SDS011;18679;45.190;5.722;2023-04-24T14:02:13;1.25;;;0.47;;
32172;SDS011;18679;45.190;5.722;2023-04-24T14:05:14;1.45;;;0.95;;
32172;SDS011;18679;45.190;5.722;2023-04-24T14:08:15;0.95;;;0.73;;
32172;SDS011;18679;45.190;5.722;2023-04-24T14:11:16;3.45;;;0.82;;
32172;SDS011;18679;45.190;5.722;2023-04-24T14:14:18;1.25;;;0.85;;
32172;SDS011;18679;45.190;5.722;2023-04-24T14:17:19;0.80;;;0.50;;
32172;SDS011;18679;45.190;5.722;2023-04-24T14:20:20;3.75;;;0.60;;
32172;SDS011;18679;45.190;5.722;2023-04-24T14:23:22;1.48;;;0.80;;
32172;SDS011;18679;45.190;5.722;2023-04-24T14:26:23;1.45;;;0.50;;
32172;SDS011;18679;45.190;5.722;2023-04-24T14:29:24;4.70;;;0.80;;
32172;SDS011;18679;45.190;5.722;2023-04-24T14:32:26;3.38;;;0.90;;
32172;SDS011;18679;45.190;5.722;2023-04-24T14:35:27;7.05;;;0.70;;
32172;SDS011;18679;45.190;5.722;2023-04-24T14:38:28;0.60;;;0.50;;
32172;SDS011;18679;45.190;5.722;2023-04-24T14:41:30;0.85;;;0.63;;
32172;SDS011;18679;45.190;5.722;2023-04-24T14:44:32;2.63;;;0.75;;
32172;SDS011;18679;45.190;5.722;2023-04-24T14:47:33;1.30;;;0.60;;
32172;SDS011;18679;45.190;5.722;2023-04-24T14:50:34;0.50;;;0.50;;
32172;SDS011;18679;45.190;5.722;2023-04-24T14:53:35;2.75;;;0.70;;
32172;SDS011;18679;45.190;5.722;2023-04-24T14:56:36;5.40;;;0.60;;
32172;SDS011;18679;45.190;5.722;2023-04-24T14:59:39;0.63;;;0.57;;
32172;SDS011;18679;45.190;5.722;2023-04-24T15:02:41;1.73;;;0.70;;
32172;SDS011;18679;45.190;5.722;2023-04-24T15:05:44;1.20;;;0.70;;
32172;SDS011;18679;45.190;5.722;2023-04-24T15:08:45;1.08;;;0.63;;
32172;SDS011;18679;45.190;5.722;2023-04-24T15:11:46;1.40;;;0.93;;
32172;SDS011;18679;45.190;5.722;2023-04-24T15:14:48;0.95;;;0.60;;
32172;SDS011;18679;45.190;5.722;2023-04-24T15:17:49;1.40;;;0.70;;
32172;SDS011;18679;45.190;5.722;2023-04-24T15:20:50;2.22;;;0.77;;
32172;SDS011;18679;45.190;5.722;2023-04-24T15:23:51;2.85;;;1.13;;
32172;SDS011;18679;45.190;5.722;2023-04-24T15:26:52;0.60;;;0.55;;
32172;SDS011;18679;45.190;5.722;2023-04-24T15:29:53;2.22;;;0.77;;
32172;SDS011;18679;45.190;5.722;2023-04-24T15:32:59;5.45;;;1.10;;
32172;SDS011;18679;45.190;5.722;2023-04-24T15:36:01;1.13;;;0.70;;
32172;SDS011;18679;45.190;5.722;2023-04-24T15:39:02;3.55;;;0.88;;
32172;SDS011;18679;45.190;5.722;2023-04-24T15:42:03;5.90;;;0.60;;
32172;SDS011;18679;45.190;5.722;2023-04-24T15:45:04;1.95;;;0.75;;
32172;SDS011;18679;45.190;5.722;2023-04-24T15:48:05;1.65;;;0.70;;
32172;SDS011;18679;45.190;5.722;2023-04-24T15:51:06;2.10;;;0.80;;
32172;SDS011;18679;45.190;5.722;2023-04-24T15:54:07;2.40;;;0.93;;
32172;SDS011;18679;45.190;5.722;2023-04-24T15:57:08;1.38;;;0.60;;
32172;SDS011;18679;45.190;5.722;2023-04-24T16:00:10;1.42;;;0.63;;
32172;SDS011;18679;45.190;5.722;2023-04-24T16:03:14;0.90;;;0.60;;
32172;SDS011;18679;45.190;5.722;2023-04-24T16:06:15;1.63;;;0.80;;
32172;SDS011;18679;45.190;5.722;2023-04-24T16:09:16;1.77;;;0.80;;
32172;SDS011;18679;45.190;5.722;2023-04-24T16:12:17;2.63;;;0.60;;
32172;SDS011;18679;45.190;5.722;2023-04-24T16:15:21;2.47;;;0.95;;
32172;SDS011;18679;45.190;5.722;2023-04-24T16:18:22;0.75;;;0.70;;
32172;SDS011;18679;45.190;5.722;2023-04-24T16:21:23;2.17;;;0.90;;
32172;SDS011;18679;45.190;5.722;2023-04-24T16:24:24;0.60;;;0.60;;
32172;SDS011;18679;45.190;5.722;2023-04-24T16:27:26;1.73;;;0.80;;
32172;SDS011;18679;45.190;5.722;2023-04-24T16:30:27;0.68;;;0.52;;
32172;SDS011;18679;45.190;5.722;2023-04-24T16:33:28;0.70;;;0.60;;
32172;SDS011;18679;45.190;5.722;2023-04-24T16:36:30;7.65;;;0.80;;
32172;SDS011;18679;45.190;5.722;2023-04-24T16:39:32;1.50;;;0.73;;
32172;SDS011;18679;45.190;5.722;2023-04-24T16:42:33;2.92;;;1.08;;
32172;SDS011;18679;45.190;5.722;2023-04-24T16:45:35;2.03;;;0.80;;
32172;SDS011;18679;45.190;5.722;2023-04-24T16:48:36;2.35;;;0.70;;
32172;SDS011;18679;45.190;5.722;2023-04-24T16:51:36;2.90;;;1.00;;
32172;SDS011;18679;45.190;5.722;2023-04-24T16:54:38;3.10;;;0.80;;
32172;SDS011;18679;45.190;5.722;2023-04-24T16:57:38;2.45;;;1.10;;
32172;SDS011;18679;45.190;5.722;2023-04-24T17:00:39;1.55;;;0.75;;
32172;SDS011;18679;45.190;5.722;2023-04-24T17:03:40;1.92;;;0.90;;
32172;SDS011;18679;45.190;5.722;2023-04-24T17:06:41;1.17;;;0.80;;
32172;SDS011;18679;45.190;5.722;2023-04-24T17:09:46;8.82;;;0.90;;
32172;SDS011;18679;45.190;5.722;2023-04-24T17:12:46;0.82;;;0.70;;
32172;SDS011;18679;45.190;5.722;2023-04-24T17:15:47;4.05;;;0.50;;
32172;SDS011;18679;45.190;5.722;2023-04-24T17:18:49;5.28;;;1.30;;
32172;SDS011;18679;45.190;5.722;2023-04-24T17:21:49;3.85;;;0.73;;
32172;SDS011;18679;45.190;5.722;2023-04-24T17:24:50;3.28;;;0.80;;
32172;SDS011;18679;45.190;5.722;2023-04-24T17:27:55;1.50;;;0.60;;
32172;SDS011;18679;45.190;5.722;2023-04-24T17:30:56;6.35;;;0.80;;
32172;SDS011;18679;45.190;5.722;2023-04-24T17:33:57;1.40;;;0.80;;
32172;SDS011;18679;45.190;5.722;2023-04-24T17:36:59;1.30;;;0.90;;
32172;SDS011;18679;45.190;5.722;2023-04-24T17:40:00;1.33;;;0.70;;
32172;SDS011;18679;45.190;5.722;2023-04-24T17:43:01;2.28;;;0.90;;
32172;SDS011;18679;45.190;5.722;2023-04-24T17:46:02;2.97;;;0.85;;
32172;SDS011;18679;45.190;5.722;2023-04-24T17:49:03;1.95;;;0.70;;
32172;SDS011;18679;45.190;5.722;2023-04-24T17:52:06;1.20;;;0.80;;
32172;SDS011;18679;45.190;5.722;2023-04-24T17:55:07;3.20;;;0.88;;
32172;SDS011;18679;45.190;5.722;2023-04-24T17:58:09;3.85;;;1.27;;
32172;SDS011;18679;45.190;5.722;2023-04-24T18:01:10;2.33;;;0.75;;
32172;SDS011;18679;45.190;5.722;2023-04-24T18:04:11;3.13;;;1.00;;
32172;SDS011;18679;45.190;5.722;2023-04-24T18:07:12;3.25;;;0.95;;
32172;SDS011;18679;45.190;5.722;2023-04-24T18:10:13;3.50;;;0.90;;
32172;SDS011;18679;45.190;5.722;2023-04-24T18:13:14;1.92;;;0.90;;
32172;SDS011;18679;45.190;5.722;2023-04-24T18:16:15;1.63;;;0.77;;
32172;SDS011;18679;45.190;5.722;2023-04-24T18:19:16;0.60;;;0.60;;
32172;SDS011;18679;45.190;5.722;2023-04-24T18:22:17;0.93;;;0.70;;
32172;SDS011;18679;45.190;5.722;2023-04-24T18:25:18;7.00;;;1.15;;
32172;SDS011;18679;45.190;5.722;2023-04-24T18:28:25;4.78;;;1.15;;
32172;SDS011;18679;45.190;5.722;2023-04-24T18:31:27;1.65;;;1.02;;